createdAt,value
2022-11-16T00:02:20.537Z,99032.03
2022-11-16T00:04:50.231Z,99036.25
2022-11-16T00:07:19.881Z,99031.44
2022-11-16T00:09:47.833Z,99033.91
2022-11-16T00:12:17.386Z,99027.47
2022-11-16T00:14:47.003Z,99021.22
2022-11-16T00:17:16.537Z,99027.13
2022-11-16T00:19:47.870Z,99029.16
2022-11-16T00:22:17.390Z,99039.56
2022-11-16T00:24:47.437Z,99036.06
2022-11-16T00:27:17.093Z,99020.97
2022-11-16T00:29:46.566Z,99016.78
2022-11-16T00:32:16.068Z,99020.50
2022-11-16T00:34:43.771Z,99011.84
2022-11-16T00:37:13.241Z,99016.78
2022-11-16T00:39:42.766Z,99009.63
2022-11-16T00:42:12.223Z,99012.31
2022-11-16T00:44:41.679Z,99003.66
2022-11-16T00:47:11.115Z,98999.25
2022-11-16T00:49:38.840Z,98998.28
2022-11-16T00:52:08.337Z,98992.75
2022-11-16T00:54:37.803Z,98994.09
2022-11-16T00:57:07.239Z,98993.78
2022-11-16T00:59:36.742Z,98997.69
2022-11-16T01:02:06.301Z,98992.09
2022-11-16T01:04:35.811Z,98983.88
2022-11-16T01:07:05.301Z,98975.41
2022-11-16T01:09:34.930Z,98965.84
2022-11-16T01:12:10.596Z,98962.50
2022-11-16T01:14:45.602Z,98960.69
2022-11-16T01:17:16.025Z,98948.31
2022-11-16T01:19:45.658Z,98946.03
2022-11-16T01:22:15.277Z,98936.06
2022-11-16T01:24:47.284Z,98940.56
2022-11-16T01:27:16.790Z,98942.38
2022-11-16T01:29:45.456Z,98938.75
2022-11-16T01:32:15.499Z,98926.16
2022-11-16T01:34:45.081Z,98938.84
2022-11-16T01:37:14.761Z,98931.31
2022-11-16T01:39:44.728Z,98921.00
2022-11-16T01:42:26.611Z,98919.78
2022-11-16T01:45:31.045Z,98921.22
2022-11-16T01:48:00.588Z,98911.56
2022-11-16T01:50:30.497Z,98903.38
2022-11-16T01:53:06.055Z,98914.34
2022-11-16T01:55:38.000Z,98896.69
2022-11-16T01:58:08.224Z,98894.22
2022-11-16T02:00:37.702Z,98895.72
2022-11-16T02:03:07.359Z,98895.94
2022-11-16T02:06:20.376Z,98896.22
2022-11-16T02:09:53.805Z,98884.38
2022-11-16T02:12:56.962Z,98877.53
2022-11-16T02:15:54.042Z,98875.78
2022-11-16T02:18:36.331Z,98868.94
2022-11-16T02:21:22.422Z,98864.81
2022-11-16T02:24:27.104Z,98859.47
2022-11-16T02:28:12.159Z,98862.81
2022-11-16T02:30:49.609Z,98857.19
2022-11-16T02:33:27.882Z,98852.53
2022-11-16T02:36:00.469Z,98850.22
2022-11-16T02:38:39.108Z,98854.81
2022-11-16T02:41:21.964Z,98848.50
2022-11-16T02:44:03.565Z,98856.50
2022-11-16T02:46:41.768Z,98850.13
2022-11-16T02:49:18.813Z,98848.69
2022-11-16T02:51:49.057Z,98836.28
2022-11-16T02:54:22.643Z,98836.09
2022-11-16T02:57:03.396Z,98834.00
2022-11-16T02:59:52.164Z,98834.56
2022-11-16T03:02:49.011Z,98832.38
2022-11-16T03:05:53.047Z,98826.19
2022-11-16T03:08:38.562Z,98831.53
2022-11-16T03:11:30.563Z,98829.81
2022-11-16T03:14:05.303Z,98821.31
2022-11-16T03:16:41.428Z,98815.66
2022-11-16T03:19:20.940Z,98806.81
2022-11-16T03:22:39.624Z,98812.44
2022-11-16T03:25:17.173Z,98815.69
2022-11-16T03:27:58.027Z,98814.34
2022-11-16T03:30:32.393Z,98810.59
2022-11-16T03:33:22.574Z,98807.28
2022-11-16T03:36:16.423Z,98801.25
2022-11-16T03:38:50.867Z,98801.09
2022-11-16T03:41:22.047Z,98796.19
2022-11-16T03:43:53.631Z,98796.03
2022-11-16T03:46:23.231Z,98795.28
2022-11-16T03:48:59.424Z,98782.72
2022-11-16T03:51:29.296Z,98784.63
2022-11-16T03:53:58.845Z,98787.81
2022-11-16T03:56:28.483Z,98785.00
2022-11-16T03:58:56.263Z,98773.94
2022-11-16T04:01:25.839Z,98771.25
2022-11-16T04:03:53.659Z,98776.81
2022-11-16T04:06:41.729Z,98764.38
2022-11-16T04:09:29.793Z,98759.75
2022-11-16T04:12:17.701Z,98757.91
2022-11-16T04:15:05.843Z,98754.63
2022-11-16T04:17:53.931Z,98760.91
2022-11-16T04:20:42.056Z,98752.50
2022-11-16T04:23:34.252Z,98748.16
2022-11-16T04:26:03.809Z,98751.69
2022-11-16T04:28:35.969Z,98747.38
2022-11-16T04:31:25.323Z,98745.28
2022-11-16T04:34:13.550Z,98748.53
2022-11-16T04:37:01.596Z,98742.13
2022-11-16T04:39:31.185Z,98747.19
2022-11-16T04:42:15.721Z,98733.34
2022-11-16T04:45:04.045Z,98729.69
2022-11-16T04:47:33.934Z,98715.34
2022-11-16T04:50:04.409Z,98729.56
2022-11-16T04:52:33.984Z,98733.28
2022-11-16T04:55:03.664Z,98728.41
2022-11-16T04:57:33.203Z,98733.59
2022-11-16T05:00:04.802Z,98727.41
2022-11-16T05:02:34.464Z,98731.63
2022-11-16T05:05:02.253Z,98732.91
2022-11-16T05:07:31.904Z,98733.84
2022-11-16T05:10:01.872Z,98733.81
2022-11-16T05:12:31.976Z,98726.94
2022-11-16T05:15:01.800Z,98734.97
2022-11-16T05:17:31.320Z,98727.66
2022-11-16T05:20:19.615Z,98722.44
2022-11-16T05:22:59.640Z,98723.63
2022-11-16T05:25:33.833Z,98729.38
2022-11-16T05:28:04.217Z,98721.16
2022-11-16T05:30:34.562Z,98720.25
2022-11-16T05:33:04.959Z,98717.66
2022-11-16T05:35:34.414Z,98709.16
2022-11-16T05:38:03.900Z,98707.59
2022-11-16T05:40:33.450Z,98702.44
2022-11-16T05:43:03.039Z,98697.47
2022-11-16T05:45:32.554Z,98696.13
2022-11-16T05:48:00.253Z,98693.88
2022-11-16T05:50:30.687Z,98688.78
2022-11-16T05:53:00.162Z,98690.03
2022-11-16T05:55:29.709Z,98694.72
2022-11-16T05:57:59.214Z,98686.28
2022-11-16T06:00:27.262Z,98681.31
2022-11-16T06:02:56.783Z,98686.19
2022-11-16T06:05:26.308Z,98687.47
2022-11-16T06:07:55.857Z,98680.81
2022-11-16T06:10:25.324Z,98685.34
2022-11-16T06:12:54.931Z,98684.16
2022-11-16T06:15:24.481Z,98677.97
2022-11-16T06:17:53.998Z,98675.50
2022-11-16T06:20:23.486Z,98678.94
2022-11-16T06:22:51.224Z,98671.88
2022-11-16T06:25:20.695Z,98675.31
2022-11-16T06:27:48.420Z,98674.03
2022-11-16T06:30:19.140Z,98682.91
2022-11-16T06:32:49.825Z,98683.63
2022-11-16T06:35:18.094Z,98678.59
2022-11-16T06:37:45.864Z,98686.00
2022-11-16T06:40:13.698Z,98684.28
2022-11-16T06:42:43.289Z,98678.72
2022-11-16T06:45:14.004Z,98680.03
2022-11-16T06:47:43.527Z,98678.25
2022-11-16T06:50:13.014Z,98669.78
2022-11-16T06:52:42.564Z,98656.25
2022-11-16T06:55:12.023Z,98658.97
2022-11-16T06:57:42.832Z,98665.06
2022-11-16T07:00:15.388Z,98665.50
2022-11-16T07:02:44.941Z,98657.13
2022-11-16T07:05:16.536Z,98662.78
2022-11-16T07:07:44.303Z,98659.22
2022-11-16T07:10:14.985Z,98658.16
2022-11-16T07:12:42.806Z,98654.34
2022-11-16T07:15:11.692Z,98647.66
2022-11-16T07:17:42.687Z,98639.78
2022-11-16T07:20:12.214Z,98641.97
2022-11-16T07:22:40.063Z,98646.22
2022-11-16T07:25:10.643Z,98640.56
2022-11-16T07:27:39.392Z,98635.47
2022-11-16T07:30:09.852Z,98629.81
2022-11-16T07:32:40.366Z,98636.31
2022-11-16T07:35:10.128Z,98627.13
2022-11-16T07:37:39.767Z,98628.72
2022-11-16T07:40:11.623Z,98632.97
2022-11-16T07:42:42.184Z,98616.88
2022-11-16T07:45:13.813Z,98620.91
2022-11-16T07:47:41.686Z,98627.84
2022-11-16T07:50:12.143Z,98617.06
2022-11-16T07:52:41.748Z,98616.09
2022-11-16T07:55:11.346Z,98600.50
2022-11-16T07:57:41.434Z,98612.88
2022-11-16T08:00:11.495Z,98598.78
2022-11-16T08:02:41.001Z,98611.41
2022-11-16T08:05:10.966Z,98609.91
2022-11-16T08:07:38.758Z,98611.44
2022-11-16T08:10:09.899Z,98611.59
2022-11-16T08:12:37.741Z,98613.00
2022-11-16T08:15:06.059Z,98615.88
2022-11-16T08:17:36.429Z,98618.59
2022-11-16T08:20:09.734Z,98619.53
2022-11-16T08:22:39.360Z,98609.69
2022-11-16T08:25:08.184Z,98605.44
2022-11-16T08:27:36.388Z,98595.59
2022-11-16T08:30:10.021Z,98593.56
2022-11-16T08:32:41.357Z,98596.13
2022-11-16T08:35:11.738Z,98597.69
2022-11-16T08:37:39.550Z,98601.38
2022-11-16T08:40:10.052Z,98601.03
2022-11-16T08:42:43.670Z,98593.78
2022-11-16T08:45:13.758Z,98605.44
2022-11-16T08:47:44.789Z,98590.69
2022-11-16T08:50:12.538Z,98596.88
2022-11-16T08:52:40.750Z,98596.66
2022-11-16T08:55:10.671Z,98595.38
2022-11-16T08:57:38.411Z,98599.44
2022-11-16T09:00:11.328Z,98591.09
2022-11-16T09:02:40.898Z,98593.66
2022-11-16T09:05:12.169Z,98588.00
2022-11-16T09:07:44.243Z,98595.38
2022-11-16T09:10:13.018Z,98591.63
2022-11-16T09:12:41.758Z,98592.16
2022-11-16T09:15:11.405Z,98591.91
2022-11-16T09:17:40.926Z,98591.94
2022-11-16T09:20:09.467Z,98595.28
2022-11-16T09:22:40.038Z,98595.88
2022-11-16T09:25:11.262Z,98587.97
2022-11-16T09:27:40.932Z,98588.72
2022-11-16T09:30:11.890Z,98582.59
2022-11-16T09:32:41.466Z,98585.31
2022-11-16T09:35:09.988Z,98585.72
2022-11-16T09:37:39.581Z,98582.19
2022-11-16T09:40:12.197Z,98570.94
2022-11-16T09:42:59.217Z,98574.97
2022-11-16T09:45:55.827Z,98566.28
2022-11-16T09:48:26.338Z,98566.16
2022-11-16T09:51:08.310Z,98553.38
2022-11-16T09:54:02.819Z,98559.59
2022-11-16T09:56:37.696Z,98553.13
2022-11-16T09:59:23.632Z,98549.63
2022-11-16T10:02:37.510Z,98535.31
2022-11-16T10:05:52.535Z,98537.88
2022-11-16T10:08:51.406Z,98537.31
2022-11-16T10:11:50.542Z,98529.41
2022-11-16T10:15:14.567Z,98516.94
2022-11-16T10:18:07.628Z,98522.53
2022-11-16T10:20:53.532Z,98518.81
2022-11-16T10:23:57.301Z,98507.81
2022-11-16T10:26:53.831Z,98505.72
2022-11-16T10:30:17.271Z,98502.13
2022-11-16T10:33:08.064Z,98501.91
2022-11-16T10:35:53.797Z,98495.28
2022-11-16T10:38:31.194Z,98493.91
2022-11-16T10:41:37.183Z,98483.22
2022-11-16T10:44:45.995Z,98477.75
2022-11-16T10:48:22.547Z,98478.25
2022-11-16T10:50:53.682Z,98471.78
2022-11-16T10:53:40.623Z,98465.06
2022-11-16T10:56:30.881Z,98466.66
2022-11-16T10:59:10.457Z,98459.38
2022-11-16T11:01:56.259Z,98465.88
2022-11-16T11:04:32.905Z,98454.66
2022-11-16T11:07:29.385Z,98440.97
2022-11-16T11:09:59.653Z,98450.13
2022-11-16T11:12:38.061Z,98444.09
2022-11-16T11:15:11.632Z,98433.75
2022-11-16T11:17:47.907Z,98427.84
2022-11-16T11:20:22.727Z,98437.09
2022-11-16T11:23:05.502Z,98433.69
2022-11-16T11:25:58.261Z,98424.84
2022-11-16T11:28:37.899Z,98418.53
2022-11-16T11:31:27.451Z,98411.75
2022-11-16T11:34:23.929Z,98410.06
2022-11-16T11:37:06.766Z,98400.78
2022-11-16T11:39:38.097Z,98401.94
2022-11-16T11:42:13.567Z,98405.19
2022-11-16T11:45:08.727Z,98401.28
2022-11-16T11:47:58.752Z,98394.69
2022-11-16T11:50:55.473Z,98387.31
2022-11-16T11:53:58.972Z,98399.34
2022-11-16T11:56:33.316Z,98399.81
2022-11-16T11:59:05.692Z,98395.59
2022-11-16T12:02:28.654Z,98392.50
2022-11-16T12:06:06.303Z,98399.69
2022-11-16T12:08:57.177Z,98393.31
2022-11-16T12:12:20.001Z,98388.94
2022-11-16T12:15:29.638Z,98394.53
2022-11-16T12:18:52.854Z,98390.00
2022-11-16T12:22:29.912Z,98394.75
2022-11-16T12:25:44.435Z,98399.09
2022-11-16T12:28:23.503Z,98391.75
2022-11-16T12:31:44.576Z,98394.53
2022-11-16T12:34:52.506Z,98392.94
2022-11-16T12:37:55.799Z,98382.22
2022-11-16T12:40:50.358Z,98378.34
2022-11-16T12:43:51.731Z,98369.28
2022-11-16T12:47:18.026Z,98373.72
2022-11-16T12:50:20.278Z,98375.19
2022-11-16T12:53:32.098Z,98379.84
2022-11-16T12:56:36.953Z,98371.25
2022-11-16T12:59:36.541Z,98370.81
2022-11-16T13:02:22.735Z,98367.66
2022-11-16T13:05:26.210Z,98353.16
2022-11-16T13:08:36.827Z,98353.91
2022-11-16T13:11:52.604Z,98354.03
2022-11-16T13:14:47.511Z,98353.53
2022-11-16T13:17:32.188Z,98352.81
2022-11-16T13:20:35.875Z,98354.50
2022-11-16T13:23:39.097Z,98346.34
2022-11-16T13:26:30.148Z,98350.81
2022-11-16T13:29:27.926Z,98346.44
2022-11-16T13:32:37.754Z,98345.47
2022-11-16T13:35:17.489Z,98338.91
2022-11-16T13:37:50.949Z,98332.81
2022-11-16T13:40:34.470Z,98336.44
2022-11-16T13:43:17.264Z,98336.00
2022-11-16T13:46:01.702Z,98337.44
2022-11-16T13:48:39.522Z,98322.97
2022-11-16T13:51:20.541Z,98324.78
2022-11-16T13:56:52.150Z,98327.56
2022-11-16T13:59:31.034Z,98323.81
2022-11-16T14:02:31.867Z,98317.97
2022-11-16T14:05:12.997Z,98326.50
2022-11-16T14:07:49.670Z,98325.78
2022-11-16T14:10:34.277Z,98326.50
2022-11-16T14:13:38.668Z,98316.38
2022-11-16T14:16:16.692Z,98319.72
2022-11-16T14:18:51.545Z,98316.50
2022-11-16T14:21:39.591Z,98312.84
2022-11-16T14:25:02.696Z,98309.91
2022-11-16T14:27:51.210Z,98306.97
2022-11-16T14:30:28.730Z,98294.44
2022-11-16T14:32:58.953Z,98302.97
2022-11-16T14:35:39.644Z,98301.88
2022-11-16T14:38:35.054Z,98299.69
2022-11-16T14:41:13.881Z,98293.72
2022-11-16T14:43:49.533Z,98293.50
2022-11-16T14:46:26.799Z,98300.19
2022-11-16T14:49:00.055Z,98286.53
2022-11-16T14:51:50.243Z,98290.22
2022-11-16T14:54:42.360Z,98281.44
2022-11-16T14:57:24.389Z,98287.75
2022-11-16T15:00:20.177Z,98277.03
2022-11-16T15:03:00.903Z,98287.50
2022-11-16T15:05:36.474Z,98287.59
2022-11-16T15:08:19.518Z,98283.81
2022-11-16T15:10:52.611Z,98279.44
2022-11-16T15:13:24.947Z,98280.06
2022-11-16T15:16:20.232Z,98276.28
2022-11-16T15:19:02.216Z,98276.53
2022-11-16T15:21:30.845Z,98272.28
2022-11-16T15:24:28.759Z,98272.41
2022-11-16T15:26:48.985Z,98267.75
2022-11-16T15:29:21.380Z,98267.91
2022-11-16T15:31:50.774Z,98267.41
2022-11-16T15:34:21.584Z,98260.22
2022-11-16T15:36:50.229Z,98263.16
2022-11-16T15:39:24.229Z,98265.38
2022-11-16T15:42:00.376Z,98272.03
2022-11-16T15:44:33.865Z,98269.63
2022-11-16T15:47:05.457Z,98271.06
2022-11-16T15:49:39.083Z,98268.03
2022-11-16T15:52:09.040Z,98268.66
2022-11-16T15:54:57.658Z,98263.28
2022-11-16T15:57:28.263Z,98264.03
2022-11-16T15:59:57.755Z,98266.31
2022-11-16T16:02:29.164Z,98267.78
2022-11-16T16:04:58.758Z,98262.69
2022-11-16T16:07:49.366Z,98263.19
2022-11-16T16:10:20.821Z,98259.03
2022-11-16T16:12:57.451Z,98259.03
2022-11-16T16:15:36.204Z,98258.19
2022-11-16T16:18:37.543Z,98252.22
2022-11-16T16:21:07.163Z,98248.22
2022-11-16T16:23:50.900Z,98243.69
2022-11-16T16:26:22.480Z,98243.94
2022-11-16T16:28:52.747Z,98241.47
2022-11-16T16:31:24.085Z,98242.72
2022-11-16T16:33:55.735Z,98244.66
2022-11-16T16:36:24.643Z,98232.84
2022-11-16T16:38:57.337Z,98243.41
2022-11-16T16:41:26.810Z,98239.06
2022-11-16T16:43:56.586Z,98234.19
2022-11-16T16:46:27.402Z,98235.44
2022-11-16T16:48:57.645Z,98239.56
2022-11-16T16:51:27.941Z,98235.88
2022-11-16T16:53:58.198Z,98232.00
2022-11-16T16:56:27.918Z,98230.63
2022-11-16T16:58:57.562Z,98229.34
2022-11-16T17:01:28.567Z,98226.16
2022-11-16T17:03:57.905Z,98228.34
2022-11-16T17:06:31.037Z,98232.72
2022-11-16T17:09:01.261Z,98229.94
2022-11-16T17:11:30.118Z,98225.31
2022-11-16T17:13:59.887Z,98224.69
2022-11-16T17:16:29.485Z,98225.56
2022-11-16T17:18:59.269Z,98227.59
2022-11-16T17:21:28.068Z,98219.34
2022-11-16T17:23:57.730Z,98225.91
2022-11-16T17:26:29.593Z,98228.81
2022-11-16T17:28:59.414Z,98226.16
2022-11-16T17:31:29.324Z,98214.56
2022-11-16T17:33:58.866Z,98218.84
2022-11-16T17:36:28.423Z,98218.13
2022-11-16T17:38:58.325Z,98218.25
2022-11-16T17:41:28.240Z,98217.50
2022-11-16T17:43:58.069Z,98222.16
2022-11-16T17:46:27.621Z,98220.28
2022-11-16T17:48:57.377Z,98227.09
2022-11-16T17:51:29.966Z,98220.06
2022-11-16T17:53:59.439Z,98221.16
2022-11-16T17:56:29.512Z,98211.19
2022-11-16T17:58:59.066Z,98215.91
2022-11-16T18:01:28.782Z,98216.75
2022-11-16T18:03:59.933Z,98211.53
2022-11-16T18:06:29.878Z,98211.91
2022-11-16T18:08:59.421Z,98211.06
2022-11-16T18:11:29.317Z,98206.19
2022-11-16T18:14:01.498Z,98202.53
2022-11-16T18:16:33.869Z,98200.34
2022-11-16T18:19:06.501Z,98200.84
2022-11-16T18:21:43.380Z,98194.50
2022-11-16T18:24:13.968Z,98197.28
2022-11-16T18:26:43.621Z,98193.75
2022-11-16T18:29:16.084Z,98194.41
2022-11-16T18:31:46.236Z,98196.56
2022-11-16T18:34:16.892Z,98191.81
2022-11-16T18:36:49.021Z,98198.88
2022-11-16T18:39:18.523Z,98196.44
2022-11-16T18:41:54.747Z,98188.66
2022-11-16T18:44:25.086Z,98182.00
2022-11-16T18:46:55.513Z,98182.09
2022-11-16T18:49:24.283Z,98183.09
2022-11-16T18:51:53.723Z,98195.25
2022-11-16T18:54:23.157Z,98187.94
2022-11-16T18:56:52.615Z,98188.91
2022-11-16T18:59:23.765Z,98188.44
2022-11-16T19:01:53.229Z,98190.50
2022-11-16T19:04:22.809Z,98202.03
2022-11-16T19:06:52.324Z,98192.56
2022-11-16T19:09:21.795Z,98190.88
2022-11-16T19:11:51.843Z,98192.31
2022-11-16T19:14:21.318Z,98188.06
2022-11-16T19:16:56.734Z,98194.25
2022-11-16T19:19:27.918Z,98197.31
2022-11-16T19:21:57.179Z,98195.59
2022-11-16T19:24:26.577Z,98195.25
2022-11-16T19:26:55.980Z,98197.31
2022-11-16T19:29:25.503Z,98196.69
2022-11-16T19:31:54.912Z,98194.00
2022-11-16T19:34:26.739Z,98193.75
2022-11-16T19:36:59.891Z,98178.78
2022-11-16T19:39:28.444Z,98173.00
2022-11-16T19:41:57.883Z,98169.72
2022-11-16T19:44:27.480Z,98168.22
2022-11-16T19:46:57.428Z,98165.22
2022-11-16T19:49:27.213Z,98176.75
2022-11-16T19:51:56.710Z,98169.31
2022-11-16T19:54:26.710Z,98170.66
2022-11-16T19:56:56.182Z,98174.69
2022-11-16T19:59:23.907Z,98176.75
2022-11-16T20:01:53.349Z,98181.97
2022-11-16T20:04:22.029Z,98176.75
2022-11-16T20:06:52.018Z,98182.22
2022-11-16T20:09:21.507Z,98176.38
2022-11-16T20:11:51.195Z,98182.72
2022-11-16T20:14:19.862Z,98179.69
2022-11-16T20:16:50.487Z,98172.34
2022-11-16T20:19:21.568Z,98179.31
2022-11-16T20:21:51.261Z,98174.19
2022-11-16T20:24:20.751Z,98173.59
2022-11-16T20:26:50.508Z,98172.84
2022-11-16T20:29:20.503Z,98168.00
2022-11-16T20:31:48.382Z,98175.06
2022-11-16T20:34:20.476Z,98167.75
2022-11-16T20:36:51.360Z,98171.16
2022-11-16T20:39:21.655Z,98163.47
2022-11-16T20:41:51.131Z,98152.44
2022-11-16T20:44:23.429Z,98144.41
2022-11-16T20:46:53.002Z,98152.19
2022-11-16T20:49:22.567Z,98157.03
2022-11-16T20:51:52.064Z,98153.13
2022-11-16T20:54:21.609Z,98151.09
2022-11-16T20:56:51.091Z,98155.09
2022-11-16T20:59:20.944Z,98157.78
2022-11-16T21:01:52.988Z,98150.09
2022-11-16T21:04:22.976Z,98153.28
2022-11-16T21:06:52.498Z,98140.00
2022-11-16T21:09:25.880Z,98143.53
2022-11-16T21:12:13.531Z,98137.72
2022-11-16T21:14:43.075Z,98133.44
2022-11-16T21:17:12.595Z,98127.25
2022-11-16T21:19:54.237Z,98129.44
2022-11-16T21:22:32.406Z,98137.09
2022-11-16T21:25:02.484Z,98130.41
2022-11-16T21:27:31.879Z,98139.91
2022-11-16T21:30:01.383Z,98140.75
2022-11-16T21:32:30.828Z,98144.16
2022-11-16T21:35:00.305Z,98142.81
2022-11-16T21:37:29.860Z,98145.00
2022-11-16T21:39:59.295Z,98132.59
2022-11-16T21:42:28.792Z,98124.22
2022-11-16T21:44:58.236Z,98122.84
2022-11-16T21:47:26.851Z,98134.41
2022-11-16T21:50:24.670Z,98132.59
2022-11-16T21:52:45.881Z,98131.72
2022-11-16T21:55:15.487Z,98133.81
2022-11-16T21:57:44.991Z,98133.81
2022-11-16T22:00:14.815Z,98134.06
2022-11-16T22:02:44.224Z,98131.38
2022-11-16T22:05:31.738Z,98123.47
2022-11-16T22:08:11.591Z,98113.88
2022-11-16T22:10:41.072Z,98111.53
2022-11-16T22:13:10.544Z,98106.44
2022-11-16T22:15:39.938Z,98095.84
2022-11-16T22:18:09.339Z,98093.19
2022-11-16T22:20:39.106Z,98105.47
2022-11-16T22:23:08.542Z,98099.75
2022-11-16T22:25:37.590Z,98096.97
2022-11-16T22:28:20.532Z,98095.13
2022-11-16T22:30:52.269Z,98088.31
2022-11-16T22:33:21.896Z,98108.13
2022-11-16T22:35:51.348Z,98110.84
2022-11-16T22:38:20.824Z,98109.63
2022-11-16T22:40:52.773Z,98103.63
2022-11-16T22:43:26.779Z,98115.44
2022-11-16T22:46:05.373Z,98109.84
2022-11-16T22:48:38.341Z,98110.31
2022-11-16T22:51:29.247Z,98101.09
2022-11-16T22:54:04.686Z,98101.44
2022-11-16T22:56:34.708Z,98109.13
2022-11-16T22:59:05.607Z,98102.31
2022-11-16T23:01:35.280Z,98118.34
2022-11-16T23:04:05.750Z,98127.47
2022-11-16T23:06:35.262Z,98124.94
2022-11-16T23:09:05.095Z,98127.38
2022-11-16T23:11:52.957Z,98126.13
2022-11-16T23:14:41.049Z,98117.38
2022-11-16T23:17:10.550Z,98122.38
2022-11-16T23:19:58.643Z,98106.44
2022-11-16T23:22:46.616Z,98106.94
2022-11-16T23:25:34.672Z,98090.63
2022-11-16T23:28:08.724Z,98096.72
2022-11-16T23:30:38.612Z,98091.09
2022-11-16T23:33:09.269Z,98087.72
2022-11-16T23:35:38.706Z,98083.31
2022-11-16T23:38:09.127Z,98084.44
2022-11-16T23:40:40.608Z,98087.72
2022-11-16T23:43:29.604Z,98092.19
2022-11-16T23:45:59.067Z,98094.41
2022-11-16T23:48:28.539Z,98098.66
2022-11-16T23:50:58.030Z,98090.97
2022-11-16T23:53:27.459Z,98092.34
2022-11-16T23:56:05.964Z,98087.72
2022-11-16T23:58:35.770Z,98089.66
